My Meet Scores
Kaelyn Hong, Flying High Gymnastics - MyMeetScores.com
Top100 | Top Teams | Upcoming Meets | Completed Meets | Latest | Add Scores | Help| Support | Bookmark and Share

Kaelyn Hong, Flying High Gymnastics
Personal Bests
LevelVault BarsBeamFloorAA
39.6259.700 9.3759.50038.025
48.6009.000 9.5759.25036.175
Meet Scores
Date Meet Team Session Level Division Vault Bars Beam Floor AA
2019-03-22 Illinois Gymnastics State Championships Flying High Gymnastics 4 4 JR A 8.600 21T 8.950 19 9.375 7 9.250 6T 36.175 14
2019-02-22 Great Western Invitational - Women's Flying High Gymnastics 09 4 Cowgirl 7.900 18 8.750 11T 9.375 6 9.175 8 35.200 14
2019-02-08 IGI Chicago Style 2019 Flying High Gymnastics 14 4 213 Lakeshore L4 B 8.100 19 9.000 7 8.825 13 8.875 11 34.800 13
2019-02-01 The Big Chill Flying High Gymnastics 4 4 10 yr olds 8.000 17 9.000 5T 9.575 1 8.825 12 35.400 9
2019-01-18 2019 Bravo Classic Flying High Gymnastics 5B 4 Jr 8.400 8T 8.900 9 9.000 8 8.900 11T 35.200 6
2019-01-04 Leenda's Island Adventure Flying High Gymnastics G03 4 10 Year Ol 8.150 17 8.400 11 9.100 2T 8.925 10T 34.575 10
2018-05-03 Illinois USA Gymnastics Level 3 State Championships Flying High Gymnastics 2 3 Jr C 9.625 3T 9.600 1T 9.375 3 9.425 3T 38.025 2
2018-03-09 Lucky Invitational Flying High Gymnastics B01 3 Jr B 9.150 7T 9.700 1 9.175 3 9.150 4 37.175 2
2018-02-09 IGI Chicago Style Gymnastics Meet Flying High Gymnastics 24 3 621 LaSalle L3 C 9.100 16 9.475 2 9.250 2 9.500 1 37.325 3
2018-02-01 The Big Chill Flying High Gymnastics 4 3 8 9 yr o 9.100 3 9.250 1 8.600 3 9.025 2 35.975 2
2018-01-19 2018 Bravo Classic Flying High Gymnastics 5B 3 Jr 9.000 18T 9.325 2 9.300 3 9.225 3T 36.850 3
2017-12-14 2017 Women's Hawaiian Pineapple Classic Flying High Gymnastics 4A 3 Age9 9.150 10 9.475 1 9.175 3 8.900 9T 36.700 3
2017-11-10 Illinois NAWGJ Judges Cup 2017 Flying High Gymnastics G6 3 All Ages 9.250 8 9.350 1 8.075 26 8.800 11T 35.475 7
2017-03-30 2017 Illinois Level 3 & 5 State Aspire Gymnastics Academy All 3 Yh B 8.925 31 9.100 15T 9.000 17* 8.675 23 35.700 24T
2017-02-24 Kinetic Classic Aspire Gymnastics Academy 4,5,6,7 3 All Ages 8.600 110T 8.475 80 8.250 96 8.400 102T 33.725 103
2017-02-18 2017 Great Western Invitational Women's Aspire Gymnastics Academy 1 3 Pony 8.775 14T 8.625 9 8.675 9 8.750 11 34.825 11T
2017-01-27 2017 UGA Invitational Aspire Gymnastics Academy B7 3 Jr B 7.200 15 8.850 10 8.925 9 8.850 11 33.825 14
2017-01-20 2017 Bravo Classic Aspire Gymnastics Academy 11B 3 8yrs 8.000 24 8.500 19 8.800 9T 7.950 22 33.250 20
2016-12-16 2016 Aspire Classic Aspire Gymnastics Academy 12 3 Middle 8.250 19 8.050 20 7.650 20 8.475 17 32.425 20
2016-12-09 St. Nick Invite Aspire Gymnastics Academy 5 3 All 8.500 87T 8.650 48 8.950 43 8.250 78T 34.350 63
2016-11-19 Paul Hamm Thanksgiving Classic - 2016 Girls Aspire Gymnastics Academy 6 3 8-9 yrs 8.150 36 8.800 22 7.200 38 7.550 39 31.700 39
Click here to view our personalized
"Celebrate Your Season"
2018-19 Collection

www.lazysuits.com